sensor_id;sensor_type;location;lat;lon;timestamp;pressure;altitude;pressure_sealevel;temperature;humidity
1401;BME280;46518;48.842;8.926;2023-08-01T00:00:05;96134.13;;;18.64;91.70
1401;BME280;46518;48.842;8.926;2023-08-01T00:02:38;96141.28;;;18.81;92.31
1401;BME280;46518;48.842;8.926;2023-08-01T00:05:09;96142.22;;;18.85;91.42
1401;BME280;46518;48.842;8.926;2023-08-01T00:07:37;96138.97;;;19.01;91.36
1401;BME280;46518;48.842;8.926;2023-08-01T00:10:08;96135.09;;;18.98;90.85
1401;BME280;46518;48.842;8.926;2023-08-01T00:12:36;96132.22;;;19.03;90.67
1401;BME280;46518;48.842;8.926;2023-08-01T00:15:05;96122.78;;;19.06;90.34
1401;BME280;46518;48.842;8.926;2023-08-01T00:17:34;96125.94;;;19.08;89.84
1401;BME280;46518;48.842;8.926;2023-08-01T00:20:02;96130.91;;;19.09;90.29
1401;BME280;46518;48.842;8.926;2023-08-01T00:22:31;96129.88;;;19.02;90.90
1401;BME280;46518;48.842;8.926;2023-08-01T00:24:59;96110.56;;;19.05;91.20
1401;BME280;46518;48.842;8.926;2023-08-01T00:27:28;96091.72;;;19.10;91.13
1401;BME280;46518;48.842;8.926;2023-08-01T00:30:07;96080.72;;;19.11;90.80
1401;BME280;46518;48.842;8.926;2023-08-01T00:32:36;96075.84;;;19.13;90.34
1401;BME280;46518;48.842;8.926;2023-08-01T00:35:05;96075.72;;;19.10;90.41
1401;BME280;46518;48.842;8.926;2023-08-01T00:37:33;96072.00;;;19.02;90.51
1401;BME280;46518;48.842;8.926;2023-08-01T00:40:01;96060.88;;;19.00;90.15
1401;BME280;46518;48.842;8.926;2023-08-01T00:42:31;96061.28;;;18.90;90.59
1401;BME280;46518;48.842;8.926;2023-08-01T00:44:59;96052.88;;;19.00;89.54
1401;BME280;46518;48.842;8.926;2023-08-01T00:47:28;96056.53;;;18.95;90.34
1401;BME280;46518;48.842;8.926;2023-08-01T00:49:56;96050.06;;;18.96;90.15
1401;BME280;46518;48.842;8.926;2023-08-01T00:52:24;96053.28;;;18.90;90.14
1401;BME280;46518;48.842;8.926;2023-08-01T00:54:52;96044.50;;;18.60;90.90
1401;BME280;46518;48.842;8.926;2023-08-01T00:57:21;96036.44;;;18.68;90.89
1401;BME280;46518;48.842;8.926;2023-08-01T00:59:50;96027.91;;;18.54;90.88
1401;BME280;46518;48.842;8.926;2023-08-01T01:02:19;96027.91;;;18.84;89.90
1401;BME280;46518;48.842;8.926;2023-08-01T01:04:47;96043.84;;;18.92;89.71
1401;BME280;46518;48.842;8.926;2023-08-01T01:07:16;96032.97;;;18.98;89.49
1401;BME280;46518;48.842;8.926;2023-08-01T01:09:46;96045.19;;;18.99;89.38
1401;BME280;46518;48.842;8.926;2023-08-01T01:12:14;96047.59;;;18.91;89.35
1401;BME280;46518;48.842;8.926;2023-08-01T01:14:43;96039.69;;;18.83;89.00
1401;BME280;46518;48.842;8.926;2023-08-01T01:17:14;96037.38;;;18.72;91.25
1401;BME280;46518;48.842;8.926;2023-08-01T01:19:42;96040.66;;;18.69;92.00
1401;BME280;46518;48.842;8.926;2023-08-01T01:22:12;96031.81;;;18.57;93.39
1401;BME280;46518;48.842;8.926;2023-08-01T01:24:41;96027.88;;;18.63;94.58
1401;BME280;46518;48.842;8.926;2023-08-01T01:27:10;96045.78;;;18.53;96.89
1401;BME280;46518;48.842;8.926;2023-08-01T01:29:40;96026.31;;;18.32;98.85
1401;BME280;46518;48.842;8.926;2023-08-01T01:32:11;96025.72;;;18.26;100.00
1401;BME280;46518;48.842;8.926;2023-08-01T01:34:39;96022.63;;;18.16;100.00
1401;BME280;46518;48.842;8.926;2023-08-01T01:37:07;96023.09;;;18.18;100.00
1401;BME280;46518;48.842;8.926;2023-08-01T01:39:37;96011.69;;;18.08;100.00
1401;BME280;46518;48.842;8.926;2023-08-01T01:42:06;96006.16;;;18.22;100.00
1401;BME280;46518;48.842;8.926;2023-08-01T01:44:34;95988.47;;;18.18;100.00
1401;BME280;46518;48.842;8.926;2023-08-01T01:47:03;95970.94;;;18.17;100.00
1401;BME280;46518;48.842;8.926;2023-08-01T01:49:32;95969.22;;;18.12;100.00
1401;BME280;46518;48.842;8.926;2023-08-01T01:52:00;95975.34;;;18.13;100.00
1401;BME280;46518;48.842;8.926;2023-08-01T01:54:28;95980.72;;;18.04;100.00
1401;BME280;46518;48.842;8.926;2023-08-01T01:56:57;95957.50;;;18.13;100.00
1401;BME280;46518;48.842;8.926;2023-08-01T01:59:26;95971.31;;;18.06;100.00
1401;BME280;46518;48.842;8.926;2023-08-01T02:01:54;95966.31;;;18.05;100.00
1401;BME280;46518;48.842;8.926;2023-08-01T02:04:22;95967.09;;;18.05;100.00
1401;BME280;46518;48.842;8.926;2023-08-01T02:06:50;95970.16;;;18.16;100.00
1401;BME280;46518;48.842;8.926;2023-08-01T02:09:20;95966.56;;;18.12;100.00
1401;BME280;46518;48.842;8.926;2023-08-01T02:11:49;95956.84;;;18.16;100.00
1401;BME280;46518;48.842;8.926;2023-08-01T02:14:18;95943.78;;;18.02;100.00
1401;BME280;46518;48.842;8.926;2023-08-01T02:16:46;95972.88;;;18.07;100.00
1401;BME280;46518;48.842;8.926;2023-08-01T02:19:14;95973.47;;;18.13;100.00
1401;BME280;46518;48.842;8.926;2023-08-01T02:21:42;95976.81;;;18.01;100.00
1401;BME280;46518;48.842;8.926;2023-08-01T02:24:10;95977.47;;;17.89;100.00
1401;BME280;46518;48.842;8.926;2023-08-01T02:26:39;95974.47;;;18.00;100.00
1401;BME280;46518;48.842;8.926;2023-08-01T02:29:07;95970.81;;;18.13;100.00
1401;BME280;46518;48.842;8.926;2023-08-01T02:31:37;95954.19;;;18.16;100.00
1401;BME280;46518;48.842;8.926;2023-08-01T02:34:05;95948.53;;;18.18;100.00
1401;BME280;46518;48.842;8.926;2023-08-01T02:36:33;95935.53;;;18.16;100.00
1401;BME280;46518;48.842;8.926;2023-08-01T02:39:01;95952.72;;;18.27;100.00
1401;BME280;46518;48.842;8.926;2023-08-01T02:41:29;95950.69;;;18.24;100.00
1401;BME280;46518;48.842;8.926;2023-08-01T02:43:58;95940.16;;;18.28;100.00
1401;BME280;46518;48.842;8.926;2023-08-01T02:46:27;95934.50;;;18.08;100.00
1401;BME280;46518;48.842;8.926;2023-08-01T02:48:57;95935.34;;;18.21;100.00
1401;BME280;46518;48.842;8.926;2023-08-01T02:51:25;95945.00;;;18.35;100.00
1401;BME280;46518;48.842;8.926;2023-08-01T02:53:53;95951.09;;;18.35;100.00
1401;BME280;46518;48.842;8.926;2023-08-01T02:56:21;95937.25;;;18.21;100.00
1401;BME280;46518;48.842;8.926;2023-08-01T02:58:49;95932.47;;;18.05;100.00
1401;BME280;46518;48.842;8.926;2023-08-01T03:01:19;95923.16;;;17.91;100.00
1401;BME280;46518;48.842;8.926;2023-08-01T03:03:47;95932.09;;;17.86;100.00
1401;BME280;46518;48.842;8.926;2023-08-01T03:06:16;95940.84;;;17.95;100.00
1401;BME280;46518;48.842;8.926;2023-08-01T03:08:45;95930.66;;;17.97;100.00
1401;BME280;46518;48.842;8.926;2023-08-01T03:11:14;95922.69;;;17.88;100.00
1401;BME280;46518;48.842;8.926;2023-08-01T03:13:42;95919.81;;;18.02;100.00
1401;BME280;46518;48.842;8.926;2023-08-01T03:16:10;95923.84;;;18.08;100.00
1401;BME280;46518;48.842;8.926;2023-08-01T03:18:38;95917.25;;;17.85;100.00
1401;BME280;46518;48.842;8.926;2023-08-01T03:21:06;95928.13;;;18.01;100.00
1401;BME280;46518;48.842;8.926;2023-08-01T03:23:36;95932.78;;;18.04;100.00
1401;BME280;46518;48.842;8.926;2023-08-01T03:26:04;95928.66;;;18.15;100.00
1401;BME280;46518;48.842;8.926;2023-08-01T03:28:32;95926.59;;;18.21;100.00
1401;BME280;46518;48.842;8.926;2023-08-01T03:31:01;95919.94;;;18.27;100.00
1401;BME280;46518;48.842;8.926;2023-08-01T03:33:29;95919.56;;;18.16;100.00
1401;BME280;46518;48.842;8.926;2023-08-01T03:35:57;95930.88;;;18.34;100.00
1401;BME280;46518;48.842;8.926;2023-08-01T03:38:25;95918.00;;;18.15;100.00
1401;BME280;46518;48.842;8.926;2023-08-01T03:40:56;95910.72;;;18.24;100.00
1401;BME280;46518;48.842;8.926;2023-08-01T03:43:24;95914.91;;;18.34;100.00
1401;BME280;46518;48.842;8.926;2023-08-01T03:45:52;95921.72;;;18.23;100.00
1401;BME280;46518;48.842;8.926;2023-08-01T03:48:21;95914.03;;;18.21;100.00
1401;BME280;46518;48.842;8.926;2023-08-01T03:50:49;95898.34;;;18.07;100.00
1401;BME280;46518;48.842;8.926;2023-08-01T03:53:18;95901.81;;;17.99;100.00
1401;BME280;46518;48.842;8.926;2023-08-01T03:55:47;95896.66;;;17.94;100.00
1401;BME280;46518;48.842;8.926;2023-08-01T03:58:16;95882.97;;;18.04;100.00
1401;BME280;46518;48.842;8.926;2023-08-01T04:00:44;95853.81;;;17.87;100.00
1401;BME280;46518;48.842;8.926;2023-08-01T04:03:12;95822.78;;;17.91;100.00
1401;BME280;46518;48.842;8.926;2023-08-01T04:05:41;95787.63;;;17.85;100.00
1401;BME280;46518;48.842;8.926;2023-08-01T04:08:09;95784.97;;;17.56;100.00
1401;BME280;46518;48.842;8.926;2023-08-01T04:10:37;95780.88;;;17.58;100.00
1401;BME280;46518;48.842;8.926;2023-08-01T04:13:05;95796.38;;;17.56;100.00
1401;BME280;46518;48.842;8.926;2023-08-01T04:15:35;95790.75;;;17.79;100.00
1401;BME280;46518;48.842;8.926;2023-08-01T04:18:03;95790.00;;;17.99;100.00
1401;BME280;46518;48.842;8.926;2023-08-01T04:20:31;95796.19;;;17.91;100.00
1401;BME280;46518;48.842;8.926;2023-08-01T04:22:59;95767.28;;;18.02;100.00
1401;BME280;46518;48.842;8.926;2023-08-01T04:25:28;95758.06;;;17.99;98.31
1401;BME280;46518;48.842;8.926;2023-08-01T04:27:56;95748.78;;;18.05;98.86
1401;BME280;46518;48.842;8.926;2023-08-01T04:30:24;95738.09;;;18.26;98.03
1401;BME280;46518;48.842;8.926;2023-08-01T04:32:53;95731.22;;;18.25;96.48
1401;BME280;46518;48.842;8.926;2023-08-01T04:35:22;95717.16;;;18.37;96.41
1401;BME280;46518;48.842;8.926;2023-08-01T04:37:50;95750.00;;;18.41;95.18
1401;BME280;46518;48.842;8.926;2023-08-01T04:40:18;95734.19;;;18.24;96.29
1401;BME280;46518;48.842;8.926;2023-08-01T04:42:46;95748.06;;;18.29;96.43
1401;BME280;46518;48.842;8.926;2023-08-01T04:45:14;95782.72;;;18.08;96.43
1401;BME280;46518;48.842;8.926;2023-08-01T04:47:42;95780.06;;;18.08;96.18
1401;BME280;46518;48.842;8.926;2023-08-01T04:50:11;95811.78;;;18.22;95.30
1401;BME280;46518;48.842;8.926;2023-08-01T04:52:39;95841.75;;;17.89;96.39
1401;BME280;46518;48.842;8.926;2023-08-01T04:55:08;95860.31;;;17.68;98.72
1401;BME280;46518;48.842;8.926;2023-08-01T04:57:36;95883.22;;;17.52;100.00
1401;BME280;46518;48.842;8.926;2023-08-01T05:00:07;95879.06;;;17.42;100.00
1401;BME280;46518;48.842;8.926;2023-08-01T05:02:35;95861.78;;;17.57;100.00
1401;BME280;46518;48.842;8.926;2023-08-01T05:05:04;95851.06;;;17.45;100.00
1401;BME280;46518;48.842;8.926;2023-08-01T05:07:34;95857.44;;;17.53;100.00
1401;BME280;46518;48.842;8.926;2023-08-01T05:10:02;95840.84;;;17.47;100.00
1401;BME280;46518;48.842;8.926;2023-08-01T05:12:30;95828.78;;;17.50;100.00
1401;BME280;46518;48.842;8.926;2023-08-01T05:14:59;95827.72;;;17.72;100.00
1401;BME280;46518;48.842;8.926;2023-08-01T05:17:27;95813.72;;;17.62;100.00
1401;BME280;46518;48.842;8.926;2023-08-01T05:19:55;95808.22;;;17.67;100.00
1401;BME280;46518;48.842;8.926;2023-08-01T05:22:24;95818.63;;;17.81;99.46
1401;BME280;46518;48.842;8.926;2023-08-01T05:24:53;95808.50;;;17.96;98.03
1401;BME280;46518;48.842;8.926;2023-08-01T05:27:22;95807.88;;;17.99;97.57
1401;BME280;46518;48.842;8.926;2023-08-01T05:29:50;95814.56;;;18.05;96.41
1401;BME280;46518;48.842;8.926;2023-08-01T05:32:18;95807.28;;;18.14;96.69
1401;BME280;46518;48.842;8.926;2023-08-01T05:34:46;95803.44;;;18.24;96.49
1401;BME280;46518;48.842;8.926;2023-08-01T05:37:15;95809.38;;;18.42;95.65
1401;BME280;46518;48.842;8.926;2023-08-01T05:39:43;95809.88;;;18.56;94.95
1401;BME280;46518;48.842;8.926;2023-08-01T05:42:12;95816.00;;;18.57;93.88
1401;BME280;46518;48.842;8.926;2023-08-01T05:44:40;95806.75;;;18.54;94.14
1401;BME280;46518;48.842;8.926;2023-08-01T05:47:09;95818.38;;;18.70;93.88
1401;BME280;46518;48.842;8.926;2023-08-01T05:49:37;95814.88;;;18.79;93.47
1401;BME280;46518;48.842;8.926;2023-08-01T05:52:06;95811.44;;;18.78;93.34
1401;BME280;46518;48.842;8.926;2023-08-01T05:54:34;95817.34;;;18.96;92.82
1401;BME280;46518;48.842;8.926;2023-08-01T05:57:02;95817.97;;;18.81;91.10
1401;BME280;46518;48.842;8.926;2023-08-01T05:59:32;95827.09;;;18.92;91.65
1401;BME280;46518;48.842;8.926;2023-08-01T06:02:00;95835.97;;;18.84;91.43
1401;BME280;46518;48.842;8.926;2023-08-01T06:04:29;95839.25;;;18.68;90.96
1401;BME280;46518;48.842;8.926;2023-08-01T06:06:57;95818.91;;;18.64;91.14
1401;BME280;46518;48.842;8.926;2023-08-01T06:09:26;95822.44;;;18.56;89.96
1401;BME280;46518;48.842;8.926;2023-08-01T06:11:54;95831.09;;;18.52;90.26
1401;BME280;46518;48.842;8.926;2023-08-01T06:14:23;95843.59;;;18.73;89.85
1401;BME280;46518;48.842;8.926;2023-08-01T06:16:53;95859.50;;;18.82;89.49
1401;BME280;46518;48.842;8.926;2023-08-01T06:19:21;95868.34;;;18.73;92.21
1401;BME280;46518;48.842;8.926;2023-08-01T06:21:50;95852.19;;;18.58;93.47
1401;BME280;46518;48.842;8.926;2023-08-01T06:24:18;95870.31;;;18.01;98.08
1401;BME280;46518;48.842;8.926;2023-08-01T06:26:46;95878.66;;;17.61;100.00
1401;BME280;46518;48.842;8.926;2023-08-01T06:29:16;95890.78;;;17.41;100.00
1401;BME280;46518;48.842;8.926;2023-08-01T06:31:44;95891.63;;;17.24;100.00
1401;BME280;46518;48.842;8.926;2023-08-01T06:34:13;95877.31;;;17.08;100.00
1401;BME280;46518;48.842;8.926;2023-08-01T06:36:42;95871.66;;;17.10;100.00
1401;BME280;46518;48.842;8.926;2023-08-01T06:39:10;95866.75;;;17.29;100.00
1401;BME280;46518;48.842;8.926;2023-08-01T06:41:38;95871.75;;;17.31;100.00
1401;BME280;46518;48.842;8.926;2023-08-01T06:44:06;95874.44;;;17.22;100.00
1401;BME280;46518;48.842;8.926;2023-08-01T06:46:34;95861.47;;;17.20;100.00
1401;BME280;46518;48.842;8.926;2023-08-01T06:49:03;95845.88;;;17.01;100.00
1401;BME280;46518;48.842;8.926;2023-08-01T06:51:32;95840.69;;;17.14;100.00
1401;BME280;46518;48.842;8.926;2023-08-01T06:54:01;95821.06;;;16.89;100.00
1401;BME280;46518;48.842;8.926;2023-08-01T06:56:29;95830.91;;;16.88;100.00
1401;BME280;46518;48.842;8.926;2023-08-01T06:58:57;95839.78;;;17.01;100.00
1401;BME280;46518;48.842;8.926;2023-08-01T07:01:25;95841.00;;;17.12;100.00
1401;BME280;46518;48.842;8.926;2023-08-01T07:03:53;95836.31;;;17.09;100.00
1401;BME280;46518;48.842;8.926;2023-08-01T07:06:23;95834.81;;;16.91;100.00
1401;BME280;46518;48.842;8.926;2023-08-01T07:08:52;95820.81;;;16.55;100.00
1401;BME280;46518;48.842;8.926;2023-08-01T07:11:21;95841.41;;;16.58;100.00
1401;BME280;46518;48.842;8.926;2023-08-01T07:13:49;95832.84;;;16.35;100.00
1401;BME280;46518;48.842;8.926;2023-08-01T07:16:17;95873.28;;;16.50;100.00
1401;BME280;46518;48.842;8.926;2023-08-01T07:18:46;95882.50;;;16.52;100.00
1401;BME280;46518;48.842;8.926;2023-08-01T07:21:15;95865.81;;;16.43;100.00
1401;BME280;46518;48.842;8.926;2023-08-01T07:23:43;95858.94;;;16.51;100.00
1401;BME280;46518;48.842;8.926;2023-08-01T07:26:13;95863.63;;;16.45;100.00
1401;BME280;46518;48.842;8.926;2023-08-01T07:28:42;95851.44;;;16.35;100.00
1401;BME280;46518;48.842;8.926;2023-08-01T07:31:10;95845.00;;;16.54;100.00
1401;BME280;46518;48.842;8.926;2023-08-01T07:33:38;95848.94;;;16.48;100.00
1401;BME280;46518;48.842;8.926;2023-08-01T07:36:07;95840.50;;;16.28;100.00
1401;BME280;46518;48.842;8.926;2023-08-01T07:38:35;95837.69;;;16.16;100.00
1401;BME280;46518;48.842;8.926;2023-08-01T07:41:04;95851.91;;;16.37;100.00
1401;BME280;46518;48.842;8.926;2023-08-01T07:43:35;95844.72;;;16.29;100.00
1401;BME280;46518;48.842;8.926;2023-08-01T07:46:03;95860.16;;;16.27;100.00
1401;BME280;46518;48.842;8.926;2023-08-01T07:48:31;95858.91;;;16.42;100.00
1401;BME280;46518;48.842;8.926;2023-08-01T07:51:00;95858.75;;;16.30;100.00
1401;BME280;46518;48.842;8.926;2023-08-01T07:53:28;95848.16;;;16.21;100.00
1401;BME280;46518;48.842;8.926;2023-08-01T07:55:56;95854.41;;;16.25;100.00
1401;BME280;46518;48.842;8.926;2023-08-01T07:58:24;95861.13;;;16.40;100.00
1401;BME280;46518;48.842;8.926;2023-08-01T08:00:54;95864.06;;;16.47;100.00
1401;BME280;46518;48.842;8.926;2023-08-01T08:03:22;95852.69;;;16.55;100.00
1401;BME280;46518;48.842;8.926;2023-08-01T08:05:51;95861.88;;;16.58;100.00
1401;BME280;46518;48.842;8.926;2023-08-01T08:08:19;95866.88;;;16.68;100.00
1401;BME280;46518;48.842;8.926;2023-08-01T08:10:48;95850.47;;;16.75;100.00
1401;BME280;46518;48.842;8.926;2023-08-01T08:13:16;95858.13;;;16.59;100.00
1401;BME280;46518;48.842;8.926;2023-08-01T08:15:44;95848.44;;;16.54;100.00
1401;BME280;46518;48.842;8.926;2023-08-01T08:18:14;95860.16;;;16.62;100.00
1401;BME280;46518;48.842;8.926;2023-08-01T08:20:46;95858.75;;;16.65;100.00
1401;BME280;46518;48.842;8.926;2023-08-01T08:23:14;95841.72;;;16.66;100.00
1401;BME280;46518;48.842;8.926;2023-08-01T08:25:43;95841.38;;;16.67;100.00
1401;BME280;46518;48.842;8.926;2023-08-01T08:28:13;95842.66;;;16.78;100.00
1401;BME280;46518;48.842;8.926;2023-08-01T08:30:42;95848.28;;;16.86;100.00
1401;BME280;46518;48.842;8.926;2023-08-01T08:33:19;95858.75;;;16.91;100.00
1401;BME280;46518;48.842;8.926;2023-08-01T08:35:48;95854.63;;;17.02;100.00
1401;BME280;46518;48.842;8.926;2023-08-01T08:38:17;95849.00;;;17.03;100.00
1401;BME280;46518;48.842;8.926;2023-08-01T08:40:55;95853.81;;;17.19;100.00
1401;BME280;46518;48.842;8.926;2023-08-01T08:43:26;95846.31;;;17.12;100.00
1401;BME280;46518;48.842;8.926;2023-08-01T08:45:56;95853.19;;;17.13;100.00
1401;BME280;46518;48.842;8.926;2023-08-01T08:48:28;95858.34;;;17.18;100.00
1401;BME280;46518;48.842;8.926;2023-08-01T08:50:57;95853.78;;;17.28;100.00
1401;BME280;46518;48.842;8.926;2023-08-01T08:53:27;95860.44;;;17.42;100.00
1401;BME280;46518;48.842;8.926;2023-08-01T08:55:55;95858.09;;;17.41;100.00
1401;BME280;46518;48.842;8.926;2023-08-01T08:58:24;95869.50;;;17.41;100.00
1401;BME280;46518;48.842;8.926;2023-08-01T09:00:52;95875.72;;;17.54;100.00
1401;BME280;46518;48.842;8.926;2023-08-01T09:03:21;95873.13;;;17.37;100.00
1401;BME280;46518;48.842;8.926;2023-08-01T09:05:54;95872.16;;;17.41;100.00
1401;BME280;46518;48.842;8.926;2023-08-01T09:08:29;95875.16;;;17.40;100.00
1401;BME280;46518;48.842;8.926;2023-08-01T09:11:00;95884.50;;;17.55;100.00
1401;BME280;46518;48.842;8.926;2023-08-01T09:13:28;95892.44;;;17.63;100.00
1401;BME280;46518;48.842;8.926;2023-08-01T09:15:57;95887.22;;;17.67;100.00
1401;BME280;46518;48.842;8.926;2023-08-01T09:18:25;95896.81;;;17.59;100.00
1401;BME280;46518;48.842;8.926;2023-08-01T09:20:57;95887.69;;;17.69;100.00
1401;BME280;46518;48.842;8.926;2023-08-01T09:23:29;95888.34;;;17.66;100.00
1401;BME280;46518;48.842;8.926;2023-08-01T09:25:59;95891.41;;;17.85;100.00
1401;BME280;46518;48.842;8.926;2023-08-01T09:28:27;95896.66;;;17.94;100.00
1401;BME280;46518;48.842;8.926;2023-08-01T09:30:56;95890.63;;;17.85;100.00
1401;BME280;46518;48.842;8.926;2023-08-01T09:33:25;95890.25;;;17.95;100.00
1401;BME280;46518;48.842;8.926;2023-08-01T09:35:53;95895.06;;;18.02;100.00
1401;BME280;46518;48.842;8.926;2023-08-01T09:38:23;95908.31;;;18.10;100.00
1401;BME280;46518;48.842;8.926;2023-08-01T09:40:53;95909.75;;;18.08;100.00
1401;BME280;46518;48.842;8.926;2023-08-01T09:43:22;95903.31;;;18.09;100.00
1401;BME280;46518;48.842;8.926;2023-08-01T09:45:51;95904.44;;;18.08;100.00
1401;BME280;46518;48.842;8.926;2023-08-01T09:48:25;95905.31;;;18.12;100.00
1401;BME280;46518;48.842;8.926;2023-08-01T09:51:05;95908.25;;;18.19;100.00
1401;BME280;46518;48.842;8.926;2023-08-01T09:53:36;95908.63;;;18.09;100.00
1401;BME280;46518;48.842;8.926;2023-08-01T09:56:14;95906.03;;;18.00;100.00
1401;BME280;46518;48.842;8.926;2023-08-01T09:58:44;95901.44;;;18.09;100.00
1401;BME280;46518;48.842;8.926;2023-08-01T10:01:14;95921.78;;;17.84;100.00
1401;BME280;46518;48.842;8.926;2023-08-01T10:03:45;95923.41;;;17.68;100.00
1401;BME280;46518;48.842;8.926;2023-08-01T10:06:18;95924.72;;;17.53;100.00
1401;BME280;46518;48.842;8.926;2023-08-01T10:08:50;95916.91;;;17.48;100.00
1401;BME280;46518;48.842;8.926;2023-08-01T10:11:19;95918.81;;;17.39;100.00
1401;BME280;46518;48.842;8.926;2023-08-01T10:13:48;95931.50;;;17.33;100.00
1401;BME280;46518;48.842;8.926;2023-08-01T10:16:17;95930.25;;;17.22;100.00
1401;BME280;46518;48.842;8.926;2023-08-01T10:18:45;95935.31;;;17.06;100.00
1401;BME280;46518;48.842;8.926;2023-08-01T10:21:15;95930.03;;;16.97;100.00
1401;BME280;46518;48.842;8.926;2023-08-01T10:23:45;95942.06;;;16.95;100.00
1401;BME280;46518;48.842;8.926;2023-08-01T10:26:15;95936.91;;;16.81;100.00
1401;BME280;46518;48.842;8.926;2023-08-01T10:28:49;95942.66;;;17.09;100.00
1401;BME280;46518;48.842;8.926;2023-08-01T10:31:19;95941.69;;;17.22;100.00
1401;BME280;46518;48.842;8.926;2023-08-01T10:33:50;95933.84;;;17.26;100.00
1401;BME280;46518;48.842;8.926;2023-08-01T10:36:21;95930.84;;;17.45;100.00
1401;BME280;46518;48.842;8.926;2023-08-01T10:38:51;95949.50;;;17.83;100.00
1401;BME280;46518;48.842;8.926;2023-08-01T10:41:26;95945.00;;;17.66;100.00
1401;BME280;46518;48.842;8.926;2023-08-01T10:44:08;95948.94;;;17.52;100.00
1401;BME280;46518;48.842;8.926;2023-08-01T10:46:47;95950.06;;;17.51;100.00
1401;BME280;46518;48.842;8.926;2023-08-01T10:49:16;95962.19;;;17.69;100.00
1401;BME280;46518;48.842;8.926;2023-08-01T10:51:45;95952.19;;;17.66;100.00
1401;BME280;46518;48.842;8.926;2023-08-01T10:54:20;95951.88;;;17.67;100.00
1401;BME280;46518;48.842;8.926;2023-08-01T10:56:55;95955.50;;;17.54;100.00
1401;BME280;46518;48.842;8.926;2023-08-01T10:59:25;95953.16;;;17.61;100.00
1401;BME280;46518;48.842;8.926;2023-08-01T11:01:57;95963.91;;;17.74;100.00
1401;BME280;46518;48.842;8.926;2023-08-01T11:04:26;95963.69;;;17.96;100.00
1401;BME280;46518;48.842;8.926;2023-08-01T11:06:55;95972.00;;;17.95;100.00
1401;BME280;46518;48.842;8.926;2023-08-01T11:09:24;95966.16;;;18.01;100.00
1401;BME280;46518;48.842;8.926;2023-08-01T11:11:56;95975.91;;;17.97;100.00
1401;BME280;46518;48.842;8.926;2023-08-01T11:14:26;95963.66;;;18.05;100.00
1401;BME280;46518;48.842;8.926;2023-08-01T11:16:56;95962.63;;;18.18;100.00
1401;BME280;46518;48.842;8.926;2023-08-01T11:19:26;95975.03;;;18.14;100.00
1401;BME280;46518;48.842;8.926;2023-08-01T11:21:56;95977.66;;;17.84;97.93
1401;BME280;46518;48.842;8.926;2023-08-01T11:24:26;95987.81;;;17.91;99.41
1401;BME280;46518;48.842;8.926;2023-08-01T11:26:56;95991.53;;;17.99;98.37
1401;BME280;46518;48.842;8.926;2023-08-01T11:29:24;95990.09;;;18.10;91.42
1401;BME280;46518;48.842;8.926;2023-08-01T11:31:53;95986.63;;;18.39;98.72
1401;BME280;46518;48.842;8.926;2023-08-01T11:34:22;95982.34;;;18.47;93.82
1401;BME280;46518;48.842;8.926;2023-08-01T11:36:51;95980.78;;;18.46;84.38
1401;BME280;46518;48.842;8.926;2023-08-01T11:39:19;95977.94;;;18.72;92.81
1401;BME280;46518;48.842;8.926;2023-08-01T11:41:49;95980.84;;;18.88;90.41
1401;BME280;46518;48.842;8.926;2023-08-01T11:44:24;95998.22;;;18.64;83.56
1401;BME280;46518;48.842;8.926;2023-08-01T11:46:52;95981.63;;;18.38;81.02
1401;BME280;46518;48.842;8.926;2023-08-01T11:49:21;95996.41;;;18.56;81.40
1401;BME280;46518;48.842;8.926;2023-08-01T11:51:49;95996.13;;;18.49;83.29
1401;BME280;46518;48.842;8.926;2023-08-01T11:54:17;95997.69;;;18.71;82.92
1401;BME280;46518;48.842;8.926;2023-08-01T11:56:46;96004.56;;;18.81;80.74
1401;BME280;46518;48.842;8.926;2023-08-01T11:59:15;96005.97;;;18.99;78.25
1401;BME280;46518;48.842;8.926;2023-08-01T12:01:46;96018.03;;;19.05;81.83
1401;BME280;46518;48.842;8.926;2023-08-01T12:04:24;95999.00;;;19.07;79.59
1401;BME280;46518;48.842;8.926;2023-08-01T12:06:53;96007.22;;;19.02;77.73
1401;BME280;46518;48.842;8.926;2023-08-01T12:09:22;95995.78;;;19.01;76.77
1401;BME280;46518;48.842;8.926;2023-08-01T12:11:58;95990.25;;;19.06;76.13
1401;BME280;46518;48.842;8.926;2023-08-01T12:14:27;96000.19;;;19.18;73.93
1401;BME280;46518;48.842;8.926;2023-08-01T12:16:57;95989.97;;;19.20;67.08
1401;BME280;46518;48.842;8.926;2023-08-01T12:19:26;95999.78;;;19.28;69.55
1401;BME280;46518;48.842;8.926;2023-08-01T12:21:54;95993.19;;;19.59;76.88
1401;BME280;46518;48.842;8.926;2023-08-01T12:24:22;96007.06;;;19.86;71.78
1401;BME280;46518;48.842;8.926;2023-08-01T12:26:50;96006.06;;;20.02;69.26
1401;BME280;46518;48.842;8.926;2023-08-01T12:29:18;96005.41;;;19.48;66.95
1401;BME280;46518;48.842;8.926;2023-08-01T12:31:47;96012.66;;;19.26;67.78
1401;BME280;46518;48.842;8.926;2023-08-01T12:34:17;96010.84;;;19.18;65.78
1401;BME280;46518;48.842;8.926;2023-08-01T12:36:45;96019.94;;;19.38;70.51
1401;BME280;46518;48.842;8.926;2023-08-01T12:39:14;96023.72;;;19.37;70.63
1401;BME280;46518;48.842;8.926;2023-08-01T12:41:42;96015.63;;;19.46;70.80
1401;BME280;46518;48.842;8.926;2023-08-01T12:44:10;96000.53;;;19.62;76.50
1401;BME280;46518;48.842;8.926;2023-08-01T12:46:39;95992.72;;;19.90;73.28
1401;BME280;46518;48.842;8.926;2023-08-01T12:49:08;96003.72;;;20.13;74.53
1401;BME280;46518;48.842;8.926;2023-08-01T12:51:38;95997.38;;;19.93;66.20
1401;BME280;46518;48.842;8.926;2023-08-01T12:54:06;96008.78;;;19.69;67.32
1401;BME280;46518;48.842;8.926;2023-08-01T12:56:35;96018.81;;;19.39;66.37
1401;BME280;46518;48.842;8.926;2023-08-01T12:59:03;96025.97;;;19.47;64.98
1401;BME280;46518;48.842;8.926;2023-08-01T13:01:31;96030.06;;;19.78;70.48
1401;BME280;46518;48.842;8.926;2023-08-01T13:04:00;96025.75;;;19.86;65.71
1401;BME280;46518;48.842;8.926;2023-08-01T13:06:28;96029.41;;;19.93;65.39
1401;BME280;46518;48.842;8.926;2023-08-01T13:08:58;96036.09;;;20.12;64.24
1401;BME280;46518;48.842;8.926;2023-08-01T13:11:26;96029.75;;;19.92;59.67
1401;BME280;46518;48.842;8.926;2023-08-01T13:13:55;96021.72;;;19.92;59.61